Country
Station

 

Weather  for  Sanford Municipal Automatic Weather Observing/Reporting System  -  United States    United States

  
5 °C (41 °F)
    
 
 

Current METAR for Sanford Municipal Automatic Weather Observing/Reporting System is :

KSFM 192109Z AUTO 22003KT 8SM -RA BKN024 OVC034 05/04 A2969 RMK AO2 P0001

 

This is a report for Sanford Municipal Automatic Weather Observing/Reporting System - United States.
 
The report was made 21 minutes ago, at 21:09 UTC .
The wind was blowing at a speed of 1.5 meters per second (3.5 miles per hour) from southwest (220°).
 
The temperature was 5 °C (41 °F), with a dew-point at 4 °C (39 °F).
The atmospheric pressure was 1005 hPa (29.69 inHg).
The relative humidity was 93.2%.
 
There were broken clouds at a height of 732 meters (2400 feet). The sky was overcast from a height of 1036 meter (3400 feet)
 
The overall visibility was 12.9 kilometers (8.0 miles).
 
Currently light rain.

 
 
 
 

Country :   A   B   C   D   E   F   G   H   I   J   K   L   M   N   O   P   Q   R   S   T   U   V   W   Y   Z

 

Site Info  |  Disclaimer  |  Credits  |  Privacy
Contact us  |  Add to favorites
© 2013-2018 METARs - All rights reserved